Hot Springs National Park, AR

5:22 PM CDT on May 28, 2015 (GMT -0500)
Hot Springs Convention Center | | Change Station
CLOSE
Current Station
Personal Weather Station
Location: Hot Springs National Park, AR
Elevation: 623 ft
Nearby Weather Stations

Elev 623 ft 34.51 °N, 93.05 °W | Updated 9 minutes ago

Partly Cloudy
Partly Cloudy
68.6 °F
Feels Like 68.6 °F
N
1.0
Wind Variable Wind from SE
Gusts 2.0 mph

Today
High -- | Low -- °F
--% Chance of Precip.
Yesterday
High -- | Low -- °F
Precip. -- in
6:02 AM 8:16 PM
Waxing Gibbous, 79% visible
Pressure 30.05 in
Visibility 10.0 miles
Clouds Scattered Clouds 500 ft
Dew Point 66 °F
Humidity 92%
Rainfall 0.40 in
Snow Depth Not available.
UV 3 out of 12
Pollen 5.90 out of 12
Air Quality Not available.
Flu Activity No Activity
SPECI KHOT 282216Z AUTO 09003KT 10SM SCT005 21/19 A3005

More Conditions Fewer Conditions

Pressure 30.05 in
Visibility 10.0 miles
Clouds Scattered Clouds 500 ft
Dew Point 66 °F
Humidity 92%
Rainfall 0.40 in
Snow Depth Not available.
UV 3 out of 12
Pollen 5.90 out of 12
Air Quality Not available.
Flu Activity No Activity
SPECI KHOT 282216Z AUTO 09003KT 10SM SCT005 21/19 A3005

More Conditions Fewer Conditions

10-Day Weather Forecast

Almanac

Astronomy

May. 28, 2015 Rise Set
Actual Time
Civil Twilight
Nautical Twilight
Astronomical Twilight
Moon
Length of Visible Light
Length of Day
Tomorrow will be .
, % of the Moon is Illuminated

Today's Extremes

State Highs State Lows

Community

WunderPhotos

Upload Photos

1,825,086 photos uploaded!

WunderBlogs® & News

Nearby

Air Quality

  Air Quality AQ Index Pollutant
Not available.

Snow Depth

Station Depth Elevation

Earthquake Activity

City Distance Mag. Time & Date
Minimum magnitude displayed is 2.5.

Coastal Water Temperatures

Place Temperature

Stations

Nearby Weather Stations

Station Location Temp. Windchill Dew Point Humidity Wind Precip. Elev Updated Type